AAL9129 KPHX-MMPR
Flight info
| Callsign | AAL9129 |
|---|---|
| Flight time | 2h 6m |
| Altitude | 37000 |
| Route | STRRM1 TUS J92 VYLLA UT12 CUL UJ7 MZT J141 OBRUG OBRUG1B |
| Aircraft | A21N/M-SDE3FGHIRWY/LB1 |
Departure
| Time | 2026-04-21 17:48 |
|---|---|
| Airport | Phoenix Sky Harbor International Airport (KPHX) |
Arrival
| Time | 2026-04-21 19:54 |
|---|---|
| Airport | Puerto Vallarta International Airport (MMPR) |
| Time | Latitude | Longitude | Altitude | Speed | Heading |
|---|---|---|---|---|---|
| 2026-04-21 17:29 | 33.43819 | -111.99988 | 1136 ft | 0 kts | 128° |
| 2026-04-21 17:39 | 33.43824 | -111.99994 | 1137 ft | 2 kts | 126° |
| 2026-04-21 17:39 | 33.43827 | -112.00010 | 1137 ft | 2 kts | 76° |
| 2026-04-21 17:39 | 33.43819 | -112.00026 | 1137 ft | 2 kts | 35° |
| 2026-04-21 17:39 | 33.43807 | -112.00031 | 1137 ft | 0 kts | 1° |
| 2026-04-21 17:40 | 33.43801 | -112.00030 | 1137 ft | 1 kts | 356° |
| 2026-04-21 17:40 | 33.43799 | -112.00030 | 1136 ft | 0 kts | 357° |
| 2026-04-21 17:43 | 33.43851 | -112.00032 | 1137 ft | 12 kts | 356° |
| 2026-04-21 17:43 | 33.43903 | -112.00095 | 1137 ft | 11 kts | 278° |
| 2026-04-21 17:44 | 33.43904 | -112.00261 | 1137 ft | 27 kts | 269° |
| 2026-04-21 17:44 | 33.43903 | -112.00485 | 1136 ft | 26 kts | 267° |
| 2026-04-21 17:44 | 33.43901 | -112.00697 | 1136 ft | 25 kts | 270° |
| 2026-04-21 17:44 | 33.43901 | -112.00901 | 1135 ft | 24 kts | 270° |
| 2026-04-21 17:45 | 33.43901 | -112.01106 | 1134 ft | 25 kts | 271° |
| 2026-04-21 17:45 | 33.43902 | -112.01331 | 1132 ft | 28 kts | 270° |
| 2026-04-21 17:45 | 33.43903 | -112.01571 | 1131 ft | 29 kts | 272° |
| 2026-04-21 17:45 | 33.43903 | -112.01831 | 1129 ft | 33 kts | 270° |
| 2026-04-21 17:46 | 33.43903 | -112.02129 | 1127 ft | 39 kts | 269° |
| 2026-04-21 17:46 | 33.43903 | -112.02478 | 1125 ft | 41 kts | 270° |
| 2026-04-21 17:46 | 33.43902 | -112.02808 | 1124 ft | 38 kts | 269° |
| 2026-04-21 17:46 | 33.44038 | -112.02966 | 1124 ft | 28 kts | 2° |
| 2026-04-21 17:47 | 33.44085 | -112.02804 | 1124 ft | 30 kts | 91° |
| 2026-04-21 17:47 | 33.44084 | -112.02244 | 1127 ft | 102 kts | 90° |
| 2026-04-21 17:47 | 33.44088 | -112.01139 | 1134 ft | 161 kts | 91° |
| 2026-04-21 17:47 | 33.44070 | -111.99658 | 1382 ft | 186 kts | 92° |
| 2026-04-21 17:48 | 33.44095 | -111.98664 | 1955 ft | 180 kts | 90° |
| 2026-04-21 17:48 | 33.44040 | -111.96709 | 2883 ft | 178 kts | 96° |
| 2026-04-21 17:48 | 33.43947 | -111.95181 | 3308 ft | 191 kts | 97° |
| 2026-04-21 17:48 | 33.43843 | -111.93535 | 3681 ft | 207 kts | 97° |
| 2026-04-21 17:49 | 33.43734 | -111.91768 | 4060 ft | 224 kts | 96° |
| 2026-04-21 17:49 | 33.43615 | -111.89805 | 4399 ft | 246 kts | 96° |
| 2026-04-21 17:49 | 33.43375 | -111.87779 | 5015 ft | 252 kts | 111° |
| 2026-04-21 17:49 | 33.42459 | -111.85963 | 5491 ft | 264 kts | 137° |
| 2026-04-21 17:50 | 33.41018 | -111.84579 | 6200 ft | 269 kts | 144° |
| 2026-04-21 17:50 | 33.39524 | -111.83233 | 7009 ft | 272 kts | 144° |
| 2026-04-21 17:50 | 33.38030 | -111.81869 | 7836 ft | 274 kts | 144° |
| 2026-04-21 17:50 | 33.36439 | -111.80673 | 8629 ft | 275 kts | 161° |
| 2026-04-21 17:51 | 33.34557 | -111.80375 | 9443 ft | 275 kts | 186° |
| 2026-04-21 17:51 | 33.32704 | -111.80822 | 10271 ft | 277 kts | 192° |
| 2026-04-21 17:51 | 33.30775 | -111.81352 | 10851 ft | 289 kts | 193° |
| 2026-04-21 17:51 | 33.28780 | -111.81893 | 11257 ft | 307 kts | 192° |
| 2026-04-21 17:52 | 33.26630 | -111.82471 | 11840 ft | 318 kts | 192° |
| 2026-04-21 17:52 | 33.24484 | -111.83044 | 12628 ft | 321 kts | 192° |
| 2026-04-21 17:52 | 33.22298 | -111.83625 | 13422 ft | 323 kts | 192° |
| 2026-04-21 17:52 | 33.20110 | -111.84205 | 14170 ft | 326 kts | 193° |
| 2026-04-21 17:53 | 33.17899 | -111.84804 | 14830 ft | 332 kts | 195° |
| 2026-04-21 17:53 | 33.15694 | -111.85655 | 15448 ft | 337 kts | 201° |
| 2026-04-21 17:53 | 33.13544 | -111.86845 | 16096 ft | 342 kts | 208° |
| 2026-04-21 17:53 | 33.11470 | -111.88276 | 16756 ft | 346 kts | 211° |
| 2026-04-21 17:54 | 33.09409 | -111.89756 | 17416 ft | 349 kts | 212° |
| 2026-04-21 17:54 | 33.07337 | -111.91248 | 18040 ft | 354 kts | 212° |
| 2026-04-21 17:54 | 33.05207 | -111.92778 | 18677 ft | 358 kts | 212° |
| 2026-04-21 17:54 | 33.03067 | -111.94305 | 19314 ft | 361 kts | 210° |
| 2026-04-21 17:55 | 33.00722 | -111.95419 | 19878 ft | 368 kts | 192° |
| 2026-04-21 17:55 | 32.98183 | -111.95511 | 20447 ft | 374 kts | 173° |
| 2026-04-21 17:55 | 32.95667 | -111.94604 | 21036 ft | 380 kts | 159° |
| 2026-04-21 17:55 | 32.93223 | -111.93327 | 21636 ft | 384 kts | 158° |
| 2026-04-21 17:56 | 32.90797 | -111.91988 | 22190 ft | 389 kts | 154° |
| 2026-04-21 17:56 | 32.88514 | -111.90286 | 22724 ft | 394 kts | 145° |
| 2026-04-21 17:56 | 32.86415 | -111.88152 | 23265 ft | 399 kts | 137° |
| 2026-04-21 17:56 | 32.84480 | -111.85751 | 23775 ft | 404 kts | 135° |
| 2026-04-21 17:57 | 32.82580 | -111.83316 | 24247 ft | 408 kts | 135° |
| 2026-04-21 17:57 | 32.80648 | -111.80833 | 24702 ft | 412 kts | 135° |
| 2026-04-21 17:57 | 32.78679 | -111.78312 | 25143 ft | 416 kts | 135° |
| 2026-04-21 17:57 | 32.76718 | -111.75810 | 25561 ft | 420 kts | 135° |
| 2026-04-21 17:58 | 32.74703 | -111.73247 | 25977 ft | 423 kts | 135° |
| 2026-04-21 17:58 | 32.72684 | -111.70686 | 26392 ft | 427 kts | 135° |
| 2026-04-21 17:58 | 32.70655 | -111.68115 | 26801 ft | 430 kts | 135° |
| 2026-04-21 17:58 | 32.68629 | -111.65550 | 27187 ft | 432 kts | 135° |
| 2026-04-21 17:59 | 32.66569 | -111.62942 | 27563 ft | 435 kts | 135° |
| 2026-04-21 17:59 | 32.64473 | -111.60294 | 27919 ft | 439 kts | 135° |
| 2026-04-21 17:59 | 32.62381 | -111.57652 | 28273 ft | 442 kts | 135° |
| 2026-04-21 17:59 | 32.60283 | -111.55004 | 28615 ft | 445 kts | 135° |
| 2026-04-21 18:00 | 32.58175 | -111.52344 | 28939 ft | 448 kts | 135° |
| 2026-04-21 18:00 | 32.56018 | -111.49626 | 29251 ft | 451 kts | 135° |
| 2026-04-21 18:00 | 32.53875 | -111.46928 | 29569 ft | 454 kts | 134° |
| 2026-04-21 18:00 | 32.51698 | -111.44188 | 29892 ft | 456 kts | 135° |
| 2026-04-21 18:01 | 32.49529 | -111.41459 | 30207 ft | 459 kts | 135° |
| 2026-04-21 18:01 | 32.47355 | -111.38728 | 30530 ft | 461 kts | 134° |
| 2026-04-21 18:01 | 32.45145 | -111.35953 | 30964 ft | 460 kts | 134° |
| 2026-04-21 18:01 | 32.42954 | -111.33203 | 31420 ft | 459 kts | 135° |
| 2026-04-21 18:02 | 32.41515 | -111.31399 | 31686 ft | 458 kts | 135° |
| 2026-04-21 18:02 | 32.38611 | -111.27761 | 32202 ft | 457 kts | 135° |
| 2026-04-21 18:02 | 32.36424 | -111.25024 | 32583 ft | 457 kts | 135° |
| 2026-04-21 18:02 | 32.34248 | -111.22302 | 32944 ft | 456 kts | 135° |
| 2026-04-21 18:03 | 32.32059 | -111.19566 | 33312 ft | 455 kts | 135° |
| 2026-04-21 18:03 | 32.29909 | -111.16880 | 33649 ft | 455 kts | 135° |
| 2026-04-21 18:03 | 32.27739 | -111.14171 | 33961 ft | 455 kts | 135° |
| 2026-04-21 18:03 | 32.25564 | -111.11459 | 34255 ft | 455 kts | 135° |
| 2026-04-21 18:04 | 32.23403 | -111.08765 | 34559 ft | 454 kts | 135° |
| 2026-04-21 18:04 | 32.21219 | -111.06046 | 34865 ft | 453 kts | 135° |
| 2026-04-21 18:04 | 32.19064 | -111.03361 | 35152 ft | 453 kts | 135° |
| 2026-04-21 18:04 | 32.16882 | -111.00652 | 35411 ft | 453 kts | 135° |
| 2026-04-21 18:05 | 32.14679 | -110.98037 | 35608 ft | 453 kts | 141° |
| 2026-04-21 18:05 | 32.12187 | -110.95796 | 35790 ft | 450 kts | 150° |
| 2026-04-21 18:05 | 32.09473 | -110.94047 | 35985 ft | 448 kts | 159° |
| 2026-04-21 18:05 | 32.06541 | -110.92782 | 36166 ft | 445 kts | 168° |
| 2026-04-21 18:06 | 32.03529 | -110.92052 | 36310 ft | 442 kts | 176° |
| 2026-04-21 18:06 | 32.00478 | -110.91850 | 36450 ft | 439 kts | 185° |
| 2026-04-21 18:06 | 31.97427 | -110.91967 | 36631 ft | 439 kts | 186° |
| 2026-04-21 18:06 | 31.94387 | -110.92131 | 36792 ft | 440 kts | 186° |
| 2026-04-21 18:07 | 31.91317 | -110.92298 | 36924 ft | 441 kts | 186° |
| 2026-04-21 18:07 | 31.88252 | -110.92458 | 37023 ft | 443 kts | 186° |
| 2026-04-21 18:07 | 31.85164 | -110.92611 | 37143 ft | 444 kts | 186° |
| 2026-04-21 18:07 | 31.82042 | -110.92760 | 37161 ft | 446 kts | 186° |
| 2026-04-21 18:08 | 31.75837 | -110.93048 | 37161 ft | 446 kts | 186° |
| 2026-04-21 18:08 | 31.69651 | -110.93331 | 37176 ft | 446 kts | 186° |
| 2026-04-21 18:09 | 31.63463 | -110.93615 | 37164 ft | 445 kts | 186° |
| 2026-04-21 18:09 | 31.57273 | -110.93899 | 37174 ft | 445 kts | 186° |
| 2026-04-21 18:10 | 31.51075 | -110.94182 | 37169 ft | 446 kts | 186° |
| 2026-04-21 18:10 | 31.44855 | -110.94467 | 37190 ft | 447 kts | 186° |
| 2026-04-21 18:11 | 31.38626 | -110.94441 | 37192 ft | 451 kts | 179° |
| 2026-04-21 18:11 | 31.32411 | -110.93211 | 37192 ft | 457 kts | 168° |
| 2026-04-21 18:12 | 31.26429 | -110.90716 | 37193 ft | 461 kts | 158° |
| 2026-04-21 18:12 | 31.20727 | -110.87280 | 37211 ft | 462 kts | 155° |
| 2026-04-21 18:13 | 31.15058 | -110.83749 | 37210 ft | 462 kts | 155° |
| 2026-04-21 18:13 | 31.09351 | -110.80218 | 37234 ft | 463 kts | 155° |
| 2026-04-21 18:14 | 31.00811 | -110.74963 | 37247 ft | 465 kts | 155° |
| 2026-04-21 18:15 | 30.95086 | -110.71452 | 37246 ft | 464 kts | 155° |
| 2026-04-21 18:15 | 30.89401 | -110.67968 | 37250 ft | 464 kts | 155° |
| 2026-04-21 18:16 | 30.83677 | -110.64465 | 37238 ft | 464 kts | 155° |
| 2026-04-21 18:16 | 30.77962 | -110.60973 | 37232 ft | 465 kts | 155° |
| 2026-04-21 18:17 | 30.72257 | -110.57494 | 37235 ft | 465 kts | 155° |
| 2026-04-21 18:17 | 30.66510 | -110.53993 | 37237 ft | 465 kts | 155° |
| 2026-04-21 18:18 | 30.60776 | -110.50502 | 37224 ft | 465 kts | 155° |
| 2026-04-21 18:18 | 30.55076 | -110.47039 | 37222 ft | 465 kts | 156° |
| 2026-04-21 18:19 | 30.49353 | -110.43565 | 37211 ft | 465 kts | 156° |
| 2026-04-21 18:19 | 30.43609 | -110.40083 | 37203 ft | 465 kts | 156° |
| 2026-04-21 18:20 | 30.37869 | -110.36610 | 37192 ft | 466 kts | 156° |
| 2026-04-21 18:20 | 30.32112 | -110.33131 | 37187 ft | 466 kts | 157° |
| 2026-04-21 18:21 | 30.26374 | -110.29669 | 37173 ft | 466 kts | 157° |
| 2026-04-21 18:21 | 30.20647 | -110.26218 | 37169 ft | 467 kts | 157° |
| 2026-04-21 18:22 | 30.14899 | -110.22756 | 37165 ft | 466 kts | 157° |
| 2026-04-21 18:22 | 30.09160 | -110.19303 | 37160 ft | 465 kts | 157° |
| 2026-04-21 18:23 | 30.03404 | -110.15846 | 37147 ft | 465 kts | 157° |
| 2026-04-21 18:23 | 29.97677 | -110.12414 | 37154 ft | 466 kts | 157° |
| 2026-04-21 18:24 | 29.91938 | -110.08978 | 37156 ft | 466 kts | 157° |
| 2026-04-21 18:24 | 29.86182 | -110.05534 | 37170 ft | 466 kts | 157° |
| 2026-04-21 18:25 | 29.80426 | -110.02096 | 37171 ft | 467 kts | 158° |
| 2026-04-21 18:25 | 29.74663 | -109.98656 | 37167 ft | 467 kts | 158° |
| 2026-04-21 18:26 | 29.68887 | -109.95217 | 37171 ft | 467 kts | 158° |
| 2026-04-21 18:26 | 29.63135 | -109.91800 | 37179 ft | 467 kts | 158° |
| 2026-04-21 18:27 | 29.57359 | -109.88371 | 37182 ft | 468 kts | 158° |
| 2026-04-21 18:27 | 29.51560 | -109.84934 | 37185 ft | 468 kts | 158° |
| 2026-04-21 18:28 | 29.45773 | -109.81506 | 37181 ft | 468 kts | 158° |
| 2026-04-21 18:28 | 29.39988 | -109.78085 | 37163 ft | 468 kts | 158° |
| 2026-04-21 18:29 | 29.34223 | -109.74680 | 37137 ft | 468 kts | 158° |
| 2026-04-21 18:29 | 29.28435 | -109.71264 | 37118 ft | 469 kts | 158° |
| 2026-04-21 18:30 | 29.22657 | -109.67860 | 37106 ft | 469 kts | 158° |
| 2026-04-21 18:30 | 29.16828 | -109.64431 | 37125 ft | 468 kts | 158° |
| 2026-04-21 18:31 | 29.11036 | -109.61028 | 37144 ft | 469 kts | 158° |
| 2026-04-21 18:31 | 29.05249 | -109.57632 | 37151 ft | 470 kts | 158° |
| 2026-04-21 18:32 | 28.99441 | -109.54227 | 37159 ft | 470 kts | 159° |
| 2026-04-21 18:32 | 28.93611 | -109.50813 | 37161 ft | 470 kts | 159° |
| 2026-04-21 18:33 | 28.87792 | -109.47411 | 37151 ft | 470 kts | 159° |
| 2026-04-21 18:33 | 28.81961 | -109.44008 | 37144 ft | 469 kts | 159° |
| 2026-04-21 18:34 | 28.76168 | -109.40632 | 37139 ft | 470 kts | 159° |
| 2026-04-21 18:34 | 28.70357 | -109.37248 | 37149 ft | 470 kts | 159° |
| 2026-04-21 18:35 | 28.65474 | -109.34407 | 37157 ft | 470 kts | 159° |
| 2026-04-21 18:35 | 28.58696 | -109.30468 | 37174 ft | 470 kts | 159° |
| 2026-04-21 18:36 | 28.52874 | -109.27091 | 37196 ft | 470 kts | 159° |
| 2026-04-21 18:36 | 28.47058 | -109.23720 | 37215 ft | 470 kts | 159° |
| 2026-04-21 18:37 | 28.41242 | -109.20351 | 37217 ft | 469 kts | 159° |
| 2026-04-21 18:37 | 28.35410 | -109.16979 | 37220 ft | 469 kts | 159° |
| 2026-04-21 18:38 | 28.29615 | -109.13633 | 37227 ft | 469 kts | 159° |
| 2026-04-21 18:38 | 28.23781 | -109.10270 | 37245 ft | 470 kts | 160° |
| 2026-04-21 18:39 | 28.17960 | -109.06921 | 37249 ft | 471 kts | 160° |
| 2026-04-21 18:39 | 28.12122 | -109.03565 | 37267 ft | 471 kts | 160° |
| 2026-04-21 18:40 | 28.06287 | -109.00211 | 37280 ft | 471 kts | 160° |
| 2026-04-21 18:40 | 28.01404 | -108.97410 | 37286 ft | 470 kts | 160° |
| 2026-04-21 18:41 | 27.94603 | -108.93514 | 37282 ft | 470 kts | 160° |
| 2026-04-21 18:41 | 27.88774 | -108.90176 | 37254 ft | 470 kts | 160° |
| 2026-04-21 18:42 | 27.82916 | -108.86827 | 37212 ft | 470 kts | 160° |
| 2026-04-21 18:42 | 27.77091 | -108.83501 | 37166 ft | 469 kts | 160° |
| 2026-04-21 18:43 | 27.71280 | -108.80184 | 37138 ft | 470 kts | 160° |
| 2026-04-21 18:43 | 27.65452 | -108.76865 | 37151 ft | 469 kts | 160° |
| 2026-04-21 18:44 | 27.59626 | -108.73547 | 37158 ft | 468 kts | 160° |
| 2026-04-21 18:44 | 27.53803 | -108.70239 | 37172 ft | 468 kts | 160° |
| 2026-04-21 18:45 | 27.47985 | -108.66936 | 37182 ft | 467 kts | 160° |
| 2026-04-21 18:45 | 27.42180 | -108.63645 | 37171 ft | 468 kts | 160° |
| 2026-04-21 18:46 | 27.36365 | -108.60351 | 37164 ft | 467 kts | 160° |
| 2026-04-21 18:46 | 27.30564 | -108.57069 | 37164 ft | 467 kts | 160° |
| 2026-04-21 18:47 | 27.24742 | -108.53780 | 37168 ft | 468 kts | 160° |
| 2026-04-21 18:47 | 27.18938 | -108.50505 | 37157 ft | 468 kts | 160° |
| 2026-04-21 18:48 | 27.13112 | -108.47220 | 37148 ft | 467 kts | 160° |
| 2026-04-21 18:48 | 27.07295 | -108.43944 | 37132 ft | 467 kts | 160° |
| 2026-04-21 18:49 | 27.01502 | -108.40684 | 37120 ft | 468 kts | 160° |
| 2026-04-21 18:49 | 26.96630 | -108.37946 | 37111 ft | 467 kts | 160° |
| 2026-04-21 18:50 | 26.89865 | -108.34148 | 37092 ft | 467 kts | 161° |
| 2026-04-21 18:50 | 26.84055 | -108.30891 | 37093 ft | 466 kts | 161° |
| 2026-04-21 18:51 | 26.78248 | -108.27640 | 37094 ft | 466 kts | 160° |
| 2026-04-21 18:51 | 26.72479 | -108.24413 | 37096 ft | 466 kts | 161° |
| 2026-04-21 18:52 | 26.66668 | -108.21169 | 37127 ft | 466 kts | 160° |
| 2026-04-21 18:52 | 26.60881 | -108.17958 | 37148 ft | 464 kts | 162° |
| 2026-04-21 18:53 | 26.54908 | -108.15256 | 37160 ft | 457 kts | 168° |
| 2026-04-21 18:53 | 26.48892 | -108.12950 | 37171 ft | 458 kts | 168° |
| 2026-04-21 18:54 | 26.42893 | -108.10657 | 37174 ft | 458 kts | 168° |
| 2026-04-21 18:54 | 26.36869 | -108.08350 | 37168 ft | 459 kts | 168° |
| 2026-04-21 18:55 | 26.31808 | -108.06411 | 37172 ft | 459 kts | 168° |
| 2026-04-21 18:55 | 26.24764 | -108.03714 | 37176 ft | 458 kts | 168° |
| 2026-04-21 18:56 | 26.18750 | -108.01415 | 37174 ft | 458 kts | 168° |
| 2026-04-21 18:56 | 26.12697 | -107.99103 | 37157 ft | 457 kts | 168° |
| 2026-04-21 18:57 | 26.06697 | -107.96815 | 37135 ft | 457 kts | 168° |
| 2026-04-21 18:57 | 26.00685 | -107.94526 | 37112 ft | 457 kts | 168° |
| 2026-04-21 18:58 | 25.94660 | -107.92234 | 37112 ft | 458 kts | 168° |
| 2026-04-21 18:58 | 25.88627 | -107.89940 | 37110 ft | 458 kts | 168° |
| 2026-04-21 18:59 | 25.82617 | -107.87658 | 37113 ft | 458 kts | 168° |
| 2026-04-21 18:59 | 25.76574 | -107.85368 | 37088 ft | 457 kts | 168° |
| 2026-04-21 19:00 | 25.70533 | -107.83079 | 37078 ft | 458 kts | 168° |
| 2026-04-21 19:00 | 25.64505 | -107.80799 | 37067 ft | 459 kts | 168° |
| 2026-04-21 19:01 | 25.58481 | -107.78522 | 37053 ft | 458 kts | 168° |
| 2026-04-21 19:01 | 25.52445 | -107.76243 | 37047 ft | 458 kts | 169° |
| 2026-04-21 19:02 | 25.46423 | -107.73972 | 37037 ft | 458 kts | 169° |
| 2026-04-21 19:02 | 25.40402 | -107.71703 | 37036 ft | 458 kts | 169° |
| 2026-04-21 19:03 | 25.34351 | -107.69427 | 37035 ft | 459 kts | 168° |
| 2026-04-21 19:03 | 25.28292 | -107.67149 | 37032 ft | 459 kts | 168° |
| 2026-04-21 19:04 | 25.22286 | -107.64891 | 37030 ft | 459 kts | 169° |
| 2026-04-21 19:04 | 25.16211 | -107.62613 | 37026 ft | 459 kts | 168° |
| 2026-04-21 19:05 | 25.10148 | -107.60341 | 37024 ft | 460 kts | 168° |
| 2026-04-21 19:05 | 25.04078 | -107.58066 | 37022 ft | 459 kts | 168° |
| 2026-04-21 19:06 | 24.98066 | -107.55814 | 37025 ft | 460 kts | 168° |
| 2026-04-21 19:06 | 24.92001 | -107.53546 | 37027 ft | 459 kts | 169° |
| 2026-04-21 19:07 | 24.85928 | -107.51276 | 37026 ft | 458 kts | 169° |
| 2026-04-21 19:07 | 24.79939 | -107.48868 | 37026 ft | 464 kts | 164° |
| 2026-04-21 19:08 | 24.74096 | -107.45704 | 37026 ft | 470 kts | 157° |
| 2026-04-21 19:08 | 24.68574 | -107.41795 | 37023 ft | 476 kts | 152° |
| 2026-04-21 19:09 | 24.63131 | -107.37614 | 37019 ft | 477 kts | 152° |
| 2026-04-21 19:09 | 24.57686 | -107.33443 | 37011 ft | 477 kts | 152° |
| 2026-04-21 19:10 | 24.52240 | -107.29293 | 37007 ft | 477 kts | 152° |
| 2026-04-21 19:10 | 24.46800 | -107.25153 | 37002 ft | 477 kts | 152° |
| 2026-04-21 19:11 | 24.41361 | -107.21023 | 37004 ft | 475 kts | 152° |
| 2026-04-21 19:11 | 24.35942 | -107.16918 | 37006 ft | 476 kts | 152° |
| 2026-04-21 19:12 | 24.31392 | -107.13474 | 37004 ft | 475 kts | 152° |
| 2026-04-21 19:12 | 24.25070 | -107.08695 | 37011 ft | 475 kts | 152° |
| 2026-04-21 19:13 | 24.19621 | -107.04577 | 37013 ft | 476 kts | 152° |
| 2026-04-21 19:13 | 24.14185 | -107.00473 | 37013 ft | 475 kts | 152° |
| 2026-04-21 19:14 | 24.08742 | -106.96368 | 37012 ft | 475 kts | 152° |
| 2026-04-21 19:14 | 24.03294 | -106.92265 | 37020 ft | 475 kts | 152° |
| 2026-04-21 19:15 | 23.97856 | -106.88173 | 37025 ft | 475 kts | 152° |
| 2026-04-21 19:15 | 23.92391 | -106.84066 | 37026 ft | 475 kts | 152° |
| 2026-04-21 19:16 | 23.86973 | -106.79997 | 37026 ft | 475 kts | 152° |
| 2026-04-21 19:16 | 23.81500 | -106.75890 | 37021 ft | 474 kts | 152° |
| 2026-04-21 19:17 | 23.73356 | -106.69783 | 37020 ft | 474 kts | 152° |
| 2026-04-21 19:17 | 23.67930 | -106.65721 | 37024 ft | 474 kts | 152° |
| 2026-04-21 19:18 | 23.62492 | -106.61654 | 37026 ft | 474 kts | 152° |
| 2026-04-21 19:18 | 23.57036 | -106.57578 | 37024 ft | 474 kts | 152° |
| 2026-04-21 19:19 | 23.51615 | -106.53537 | 37015 ft | 474 kts | 151° |
| 2026-04-21 19:19 | 23.46171 | -106.49482 | 37003 ft | 474 kts | 151° |
| 2026-04-21 19:20 | 23.40722 | -106.45425 | 37009 ft | 474 kts | 151° |
| 2026-04-21 19:20 | 23.35292 | -106.41389 | 37006 ft | 473 kts | 151° |
| 2026-04-21 19:21 | 23.29869 | -106.37358 | 37007 ft | 474 kts | 151° |
| 2026-04-21 19:21 | 23.24429 | -106.33319 | 37003 ft | 473 kts | 152° |
| 2026-04-21 19:22 | 23.18972 | -106.29355 | 37005 ft | 470 kts | 154° |
| 2026-04-21 19:22 | 23.13222 | -106.25990 | 37011 ft | 465 kts | 161° |
| 2026-04-21 19:23 | 23.07272 | -106.23340 | 36999 ft | 462 kts | 165° |
| 2026-04-21 19:23 | 23.01257 | -106.20801 | 36999 ft | 463 kts | 165° |
| 2026-04-21 19:24 | 22.95261 | -106.18262 | 36998 ft | 463 kts | 165° |
| 2026-04-21 19:24 | 22.89303 | -106.15733 | 36997 ft | 462 kts | 165° |
| 2026-04-21 19:25 | 22.83302 | -106.13189 | 36987 ft | 462 kts | 165° |
| 2026-04-21 19:25 | 22.77300 | -106.10644 | 36981 ft | 462 kts | 165° |
| 2026-04-21 19:26 | 22.74329 | -106.09386 | 36816 ft | 463 kts | 165° |
| 2026-04-21 19:26 | 22.71310 | -106.08108 | 36532 ft | 460 kts | 165° |
| 2026-04-21 19:26 | 22.68344 | -106.06851 | 36255 ft | 457 kts | 165° |
| 2026-04-21 19:26 | 22.65413 | -106.05611 | 35977 ft | 453 kts | 165° |
| 2026-04-21 19:27 | 22.62472 | -106.04370 | 35701 ft | 451 kts | 165° |
| 2026-04-21 19:27 | 22.59538 | -106.03133 | 35421 ft | 451 kts | 165° |
| 2026-04-21 19:27 | 22.56613 | -106.01901 | 35144 ft | 451 kts | 165° |
| 2026-04-21 19:27 | 22.53705 | -106.00677 | 34868 ft | 451 kts | 165° |
| 2026-04-21 19:28 | 22.50773 | -105.99442 | 34589 ft | 452 kts | 165° |
| 2026-04-21 19:28 | 22.47861 | -105.98216 | 34318 ft | 452 kts | 165° |
| 2026-04-21 19:28 | 22.44930 | -105.96982 | 33993 ft | 452 kts | 164° |
| 2026-04-21 19:28 | 22.41993 | -105.95746 | 33552 ft | 453 kts | 165° |
| 2026-04-21 19:29 | 22.39051 | -105.94507 | 32976 ft | 453 kts | 165° |
| 2026-04-21 19:29 | 22.36125 | -105.93277 | 32290 ft | 455 kts | 164° |
| 2026-04-21 19:29 | 22.33173 | -105.92039 | 31490 ft | 459 kts | 164° |
| 2026-04-21 19:29 | 22.30180 | -105.90783 | 30676 ft | 462 kts | 164° |
| 2026-04-21 19:30 | 22.27166 | -105.89516 | 30042 ft | 460 kts | 164° |
| 2026-04-21 19:30 | 22.24220 | -105.88277 | 29396 ft | 460 kts | 164° |
| 2026-04-21 19:30 | 22.21244 | -105.87029 | 28760 ft | 459 kts | 164° |
| 2026-04-21 19:30 | 22.18252 | -105.85775 | 28196 ft | 455 kts | 163° |
| 2026-04-21 19:31 | 22.15311 | -105.84540 | 27711 ft | 450 kts | 163° |
| 2026-04-21 19:31 | 22.12413 | -105.83324 | 27266 ft | 445 kts | 163° |
| 2026-04-21 19:31 | 22.09573 | -105.82133 | 26836 ft | 439 kts | 163° |
| 2026-04-21 19:31 | 22.06724 | -105.80940 | 26416 ft | 435 kts | 163° |
| 2026-04-21 19:32 | 22.03893 | -105.79756 | 25983 ft | 432 kts | 163° |
| 2026-04-21 19:32 | 22.01111 | -105.78593 | 25557 ft | 429 kts | 163° |
| 2026-04-21 19:32 | 21.98346 | -105.77434 | 25116 ft | 426 kts | 163° |
| 2026-04-21 19:32 | 21.95577 | -105.76277 | 24671 ft | 422 kts | 162° |
| 2026-04-21 19:33 | 21.93787 | -105.75528 | 24374 ft | 420 kts | 162° |
| 2026-04-21 19:33 | 21.90147 | -105.74006 | 23794 ft | 414 kts | 162° |
| 2026-04-21 19:33 | 21.87475 | -105.72887 | 23560 ft | 404 kts | 162° |
| 2026-04-21 19:33 | 21.84899 | -105.71809 | 23444 ft | 391 kts | 162° |
| 2026-04-21 19:34 | 21.82427 | -105.70775 | 23241 ft | 381 kts | 162° |
| 2026-04-21 19:34 | 21.79968 | -105.69723 | 23104 ft | 370 kts | 160° |
| 2026-04-21 19:34 | 21.77678 | -105.68555 | 22930 ft | 361 kts | 155° |
| 2026-04-21 19:34 | 21.75499 | -105.67222 | 22590 ft | 358 kts | 152° |
| 2026-04-21 19:35 | 21.73386 | -105.65833 | 22268 ft | 353 kts | 151° |
| 2026-04-21 19:35 | 21.69288 | -105.63113 | 21476 ft | 345 kts | 151° |
| 2026-04-21 19:35 | 21.67213 | -105.61743 | 20898 ft | 348 kts | 151° |
| 2026-04-21 19:36 | 21.65176 | -105.60400 | 20552 ft | 344 kts | 150° |
| 2026-04-21 19:36 | 21.63138 | -105.59057 | 20172 ft | 341 kts | 150° |
| 2026-04-21 19:36 | 21.61123 | -105.57729 | 19799 ft | 339 kts | 150° |
| 2026-04-21 19:36 | 21.59144 | -105.56425 | 19346 ft | 334 kts | 150° |
| 2026-04-21 19:37 | 21.57144 | -105.55109 | 18806 ft | 335 kts | 150° |
| 2026-04-21 19:37 | 21.55180 | -105.53816 | 18462 ft | 331 kts | 150° |
| 2026-04-21 19:37 | 21.53217 | -105.52525 | 18093 ft | 329 kts | 150° |
| 2026-04-21 19:37 | 21.51287 | -105.51255 | 17724 ft | 327 kts | 150° |
| 2026-04-21 19:38 | 21.49354 | -105.49985 | 17328 ft | 324 kts | 150° |
| 2026-04-21 19:38 | 21.47422 | -105.48714 | 16952 ft | 322 kts | 150° |
| 2026-04-21 19:38 | 21.46159 | -105.47883 | 16655 ft | 319 kts | 150° |
| 2026-04-21 19:38 | 21.43657 | -105.46240 | 16042 ft | 316 kts | 150° |
| 2026-04-21 19:39 | 21.41764 | -105.44998 | 15548 ft | 314 kts | 150° |
| 2026-04-21 19:39 | 21.39924 | -105.43790 | 15121 ft | 310 kts | 150° |
| 2026-04-21 19:39 | 21.38081 | -105.42581 | 14639 ft | 307 kts | 149° |
| 2026-04-21 19:39 | 21.36289 | -105.41406 | 14274 ft | 304 kts | 149° |
| 2026-04-21 19:40 | 21.34481 | -105.40220 | 13855 ft | 303 kts | 149° |
| 2026-04-21 19:40 | 21.32680 | -105.39038 | 13412 ft | 300 kts | 150° |
| 2026-04-21 19:40 | 21.30906 | -105.37877 | 13008 ft | 298 kts | 150° |
| 2026-04-21 19:40 | 21.29171 | -105.36740 | 12872 ft | 284 kts | 149° |
| 2026-04-21 19:41 | 21.27541 | -105.35673 | 12903 ft | 273 kts | 150° |
| 2026-04-21 19:41 | 21.25908 | -105.34602 | 12694 ft | 275 kts | 150° |
| 2026-04-21 19:41 | 21.24281 | -105.33540 | 12308 ft | 272 kts | 150° |
| 2026-04-21 19:41 | 21.22660 | -105.32478 | 11933 ft | 269 kts | 150° |
| 2026-04-21 19:42 | 21.21083 | -105.31447 | 11564 ft | 264 kts | 150° |
| 2026-04-21 19:42 | 21.19540 | -105.30438 | 11245 ft | 258 kts | 150° |
| 2026-04-21 19:42 | 21.18005 | -105.29435 | 10972 ft | 254 kts | 150° |
| 2026-04-21 19:42 | 21.16498 | -105.28450 | 10676 ft | 253 kts | 150° |
| 2026-04-21 19:43 | 21.15003 | -105.27474 | 10373 ft | 252 kts | 150° |
| 2026-04-21 19:43 | 21.13519 | -105.26504 | 10031 ft | 252 kts | 150° |
| 2026-04-21 19:43 | 21.12014 | -105.25522 | 9717 ft | 251 kts | 150° |
| 2026-04-21 19:43 | 21.10521 | -105.24546 | 9392 ft | 250 kts | 150° |
| 2026-04-21 19:44 | 21.09044 | -105.23581 | 9081 ft | 248 kts | 150° |
| 2026-04-21 19:44 | 21.07564 | -105.22615 | 8784 ft | 247 kts | 150° |
| 2026-04-21 19:44 | 21.06117 | -105.21671 | 8510 ft | 245 kts | 150° |
| 2026-04-21 19:44 | 21.04646 | -105.20712 | 8199 ft | 245 kts | 149° |
| 2026-04-21 19:45 | 21.03200 | -105.19769 | 7887 ft | 244 kts | 149° |
| 2026-04-21 19:45 | 21.01749 | -105.18823 | 7574 ft | 244 kts | 149° |
| 2026-04-21 19:45 | 21.00291 | -105.17873 | 7264 ft | 243 kts | 149° |
| 2026-04-21 19:45 | 20.98857 | -105.16937 | 6950 ft | 243 kts | 149° |
| 2026-04-21 19:46 | 20.97409 | -105.15995 | 6636 ft | 242 kts | 149° |
| 2026-04-21 19:46 | 20.95976 | -105.15063 | 6329 ft | 242 kts | 149° |
| 2026-04-21 19:46 | 20.94538 | -105.14127 | 6019 ft | 242 kts | 149° |
| 2026-04-21 19:46 | 20.93085 | -105.13181 | 5707 ft | 242 kts | 149° |
| 2026-04-21 19:47 | 20.91678 | -105.12173 | 5402 ft | 242 kts | 143° |
| 2026-04-21 19:47 | 20.90375 | -105.11060 | 5121 ft | 241 kts | 141° |
| 2026-04-21 19:47 | 20.89078 | -105.09918 | 4833 ft | 240 kts | 141° |
| 2026-04-21 19:47 | 20.87803 | -105.08793 | 4552 ft | 238 kts | 141° |
| 2026-04-21 19:48 | 20.86496 | -105.07679 | 4256 ft | 237 kts | 150° |
| 2026-04-21 19:48 | 20.84974 | -105.07195 | 4026 ft | 227 kts | 184° |
| 2026-04-21 19:48 | 20.83530 | -105.07663 | 3981 ft | 211 kts | 213° |
| 2026-04-21 19:48 | 20.82445 | -105.08666 | 3694 ft | 204 kts | 229° |
| 2026-04-21 19:49 | 20.81517 | -105.09788 | 3452 ft | 194 kts | 231° |
| 2026-04-21 19:49 | 20.80677 | -105.10828 | 3259 ft | 182 kts | 231° |
| 2026-04-21 19:49 | 20.79864 | -105.11802 | 3079 ft | 168 kts | 230° |
| 2026-04-21 19:49 | 20.79107 | -105.12685 | 2944 ft | 152 kts | 229° |
| 2026-04-21 19:50 | 20.78639 | -105.13223 | 2847 ft | 142 kts | 229° |
| 2026-04-21 19:50 | 20.77747 | -105.14244 | 2608 ft | 140 kts | 229° |
| 2026-04-21 19:50 | 20.77090 | -105.14996 | 2411 ft | 139 kts | 229° |
| 2026-04-21 19:50 | 20.76425 | -105.15758 | 2214 ft | 139 kts | 229° |
| 2026-04-21 19:51 | 20.75766 | -105.16511 | 2017 ft | 139 kts | 229° |
| 2026-04-21 19:51 | 20.75099 | -105.17274 | 1818 ft | 139 kts | 230° |
| 2026-04-21 19:51 | 20.74443 | -105.18025 | 1626 ft | 139 kts | 229° |
| 2026-04-21 19:51 | 20.73785 | -105.18778 | 1434 ft | 138 kts | 229° |
| 2026-04-21 19:52 | 20.73134 | -105.19524 | 1245 ft | 136 kts | 229° |
| 2026-04-21 19:52 | 20.72496 | -105.20257 | 1056 ft | 135 kts | 228° |
| 2026-04-21 19:52 | 20.71859 | -105.20987 | 869 ft | 133 kts | 228° |
| 2026-04-21 19:52 | 20.71227 | -105.21712 | 684 ft | 132 kts | 228° |
| 2026-04-21 19:53 | 20.70603 | -105.22429 | 499 ft | 131 kts | 227° |
| 2026-04-21 19:53 | 20.69984 | -105.23138 | 321 ft | 130 kts | 227° |
| 2026-04-21 19:53 | 20.69373 | -105.23840 | 162 ft | 129 kts | 228° |
| 2026-04-21 19:53 | 20.68763 | -105.24553 | 70 ft | 128 kts | 228° |
| 2026-04-21 19:54 | 20.68205 | -105.25201 | 42 ft | 102 kts | 226° |
| 2026-04-21 19:54 | 20.67838 | -105.25620 | 39 ft | 52 kts | 226° |
| 2026-04-21 19:54 | 20.67610 | -105.25861 | 38 ft | 44 kts | 220° |
| 2026-04-21 19:54 | 20.67368 | -105.25954 | 38 ft | 27 kts | 137° |
| 2026-04-21 19:55 | 20.67444 | -105.25801 | 38 ft | 26 kts | 44° |
| 2026-04-21 19:55 | 20.67572 | -105.25659 | 38 ft | 26 kts | 47° |
| 2026-04-21 19:55 | 20.67719 | -105.25490 | 39 ft | 38 kts | 47° |
| 2026-04-21 19:55 | 20.67909 | -105.25275 | 41 ft | 38 kts | 47° |
| 2026-04-21 19:56 | 20.68072 | -105.25075 | 42 ft | 30 kts | 77° |
| 2026-04-21 19:56 | 20.67983 | -105.24902 | 44 ft | 23 kts | 94° |
| 2026-04-21 19:56 | 20.68012 | -105.24803 | 45 ft | 11 kts | 92° |
| 2026-04-21 19:56 | 20.68011 | -105.24764 | 45 ft | 0 kts | 92° |